Time;durP1;ratioP1;P1;durP2;ratioP2;P2;SDS_P1;SDS_P2;PMS_P1;PMS_P2;Temp;Humidity;BMP_temperature;BMP_pressure;BME280_temperature;BME280_humidity;BME280_pressure;Samples;Min_cycle;Max_cycle;Signal;HPM_P1;HPM_P2
2022/07/14 00:01:39;;;;;;;1.87;1.77;;;21.80;99.90;;;;;;7374653;19;20332;-73
2022/07/14 00:04:05;;;;;;;1.90;1.70;;;21.70;99.90;;;;;;7375622;19;20360;-74
2022/07/14 00:06:31;;;;;;;1.77;1.67;;;21.60;99.90;;;;;;7375997;19;20401;-74
2022/07/14 00:08:56;;;;;;;1.63;1.53;;;21.60;99.90;;;;;;7372228;19;20433;-74
2022/07/14 00:11:22;;;;;;;1.67;1.58;;;21.60;99.90;;;;;;7375352;19;20396;-74
2022/07/14 00:13:47;;;;;;;3.00;1.97;;;21.60;99.90;;;;;;7377117;19;20367;-73
2022/07/14 00:16:13;;;;;;;2.50;1.80;;;21.50;99.90;;;;;;7375819;19;20329;-73
2022/07/14 00:18:43;;;;;;;1.60;1.50;;;21.50;99.90;;;;;;7377583;19;20324;-74
2022/07/14 00:21:15;;;;;;;1.80;1.70;;;21.50;99.90;;;;;;7381159;19;20348;-74
2022/07/14 00:23:41;;;;;;;1.93;1.80;;;21.50;99.90;;;;;;7385727;19;20350;-73
2022/07/14 00:26:06;;;;;;;1.70;1.60;;;21.50;99.90;;;;;;7374879;19;20356;-73
2022/07/14 00:28:32;;;;;;;1.80;1.70;;;21.40;99.90;;;;;;7373673;19;20388;-75
2022/07/14 00:31:03;;;;;;;1.80;1.70;;;21.40;99.90;;;;;;7379243;19;20352;-73
2022/07/14 00:33:30;;;;;;;1.80;1.70;;;21.40;99.90;;;;;;7382319;19;20348;-74
2022/07/14 00:35:55;;;;;;;1.95;1.85;;;21.40;99.90;;;;;;7379577;19;21032;-74
2022/07/14 00:38:21;;;;;;;1.80;1.70;;;21.40;99.90;;;;;;7376973;19;20337;-73
2022/07/14 00:40:46;;;;;;;1.90;1.80;;;21.20;99.90;;;;;;7379836;19;20806;-74
2022/07/14 00:43:12;;;;;;;2.40;1.90;;;21.20;99.90;;;;;;7383096;19;20324;-73
2022/07/14 00:45:37;;;;;;;1.90;1.80;;;21.20;99.90;;;;;;7382061;19;20721;-73
2022/07/14 00:48:03;;;;;;;1.70;1.60;;;21.20;99.90;;;;;;7374219;19;20344;-73
2022/07/14 00:50:29;;;;;;;2.47;1.87;;;21.20;99.90;;;;;;7378102;19;20312;-73
2022/07/14 00:52:54;;;;;;;1.80;1.60;;;21.20;99.90;;;;;;7380872;19;20361;-73
2022/07/14 00:55:20;;;;;;;1.90;1.73;;;21.20;99.90;;;;;;7380170;19;21213;-74
2022/07/14 00:57:46;;;;;;;3.80;1.87;;;21.10;99.90;;;;;;7379459;19;20420;-73
2022/07/14 01:00:13;;;;;;;1.80;1.70;;;21.10;99.90;;;;;;7376476;19;20320;-73
2022/07/14 01:02:39;;;;;;;1.67;1.58;;;21.00;99.90;;;;;;7383878;19;21119;-74
2022/07/14 01:05:05;;;;;;;1.80;1.70;;;21.00;99.90;;;;;;7379531;19;20337;-73
2022/07/14 01:07:31;;;;;;;2.80;1.90;;;21.00;99.90;;;;;;7374848;19;20348;-73
2022/07/14 01:09:57;;;;;;;1.75;1.65;;;21.00;99.90;;;;;;7380779;19;20377;-73
2022/07/14 01:12:22;;;;;;;1.88;1.77;;;21.00;99.90;;;;;;7379420;19;20938;-73
2022/07/14 01:14:48;;;;;;;2.30;2.10;;;21.00;99.90;;;;;;7381080;19;20375;-73
2022/07/14 01:17:14;;;;;;;1.85;1.75;;;21.10;99.90;;;;;;7375586;19;20323;-73
2022/07/14 01:19:40;;;;;;;2.00;1.90;;;21.10;99.90;;;;;;7381698;19;20340;-73
2022/07/14 01:22:07;;;;;;;1.80;1.70;;;21.10;99.90;;;;;;7379810;19;20344;-73
2022/07/14 01:24:32;;;;;;;2.13;2.00;;;21.10;99.90;;;;;;7379942;19;20348;-73
2022/07/14 01:26:58;;;;;;;2.42;2.22;;;21.00;99.90;;;;;;7377230;19;20895;-73
2022/07/14 01:29:25;;;;;;;2.20;2.05;;;20.90;99.90;;;;;;7370483;19;20392;-73
2022/07/14 01:31:50;;;;;;;2.17;2.07;;;20.90;99.90;;;;;;7377192;19;21001;-76
2022/07/14 01:34:16;;;;;;;4.43;2.20;;;20.90;99.90;;;;;;7383233;19;20329;-73
2022/07/14 01:36:43;;;;;;;2.22;2.10;;;20.80;99.90;;;;;;7378841;19;20345;-74
2022/07/14 01:39:08;;;;;;;2.40;2.20;;;20.80;99.90;;;;;;7377103;19;20878;-74
2022/07/14 01:41:34;;;;;;;2.40;2.20;;;20.80;99.90;;;;;;7376390;19;20327;-73
2022/07/14 01:44:00;;;;;;;2.57;2.37;;;20.80;99.90;;;;;;7380363;19;20356;-74
2022/07/14 01:46:26;;;;;;;2.35;2.15;;;20.80;99.90;;;;;;7377991;19;20341;-73
2022/07/14 01:48:52;;;;;;;2.90;2.28;;;20.80;99.90;;;;;;7378113;19;20415;-73
2022/07/14 01:51:17;;;;;;;2.40;2.05;;;20.70;99.90;;;;;;7374508;19;20473;-73
2022/07/14 01:53:43;;;;;;;3.83;3.00;;;20.70;99.90;;;;;;7378787;19;21293;-73
2022/07/14 01:56:10;;;;;;;3.80;3.00;;;20.70;99.90;;;;;;7378022;19;20366;-73
2022/07/14 01:58:35;;;;;;;3.60;3.20;;;20.60;99.90;;;;;;7378887;19;20347;-74
2022/07/14 02:03:45;;;;;;;4.32;3.20;;;20.60;99.90;;;;;;7374435;19;20443;-73
2022/07/14 02:06:11;;;;;;;4.73;4.17;;;20.70;99.90;;;;;;7377181;19;20843;-73
2022/07/14 02:08:37;;;;;;;5.90;4.07;;;20.70;99.90;;;;;;7372107;19;20973;-73
2022/07/14 02:13:47;;;;;;;6.28;3.97;;;20.60;99.90;;;;;;7377744;19;20340;-73
2022/07/14 02:16:13;;;;;;;8.00;4.40;;;20.60;99.90;;;;;;7376964;19;20318;-74
2022/07/14 02:18:38;;;;;;;4.63;4.00;;;20.60;99.90;;;;;;7375137;19;20364;-73
2022/07/14 02:21:04;;;;;;;4.33;3.67;;;20.70;99.90;;;;;;7376870;19;20347;-74
2022/07/14 02:23:29;;;;;;;6.50;4.72;;;20.70;99.90;;;;;;7381141;19;21141;-73
2022/07/14 02:25:55;;;;;;;7.47;4.73;;;20.70;99.90;;;;;;7379448;19;20359;-74
2022/07/14 02:28:20;;;;;;;5.10;4.60;;;20.60;99.90;;;;;;7379851;19;20321;-73
2022/07/14 02:30:47;;;;;;;6.10;4.72;;;20.60;99.90;;;;;;7374520;19;20663;-73
2022/07/14 02:33:12;;;;;;;9.00;5.53;;;20.60;99.90;;;;;;7377906;19;20353;-74
2022/07/14 02:35:38;;;;;;;7.43;5.37;;;20.50;99.90;;;;;;7379824;19;20738;-73
2022/07/14 02:38:04;;;;;;;7.82;4.38;;;20.50;99.90;;;;;;7377803;19;20444;-73
2022/07/14 02:40:29;;;;;;;6.27;3.87;;;20.60;99.90;;;;;;7370071;19;20367;-73
2022/07/14 02:42:55;;;;;;;5.20;3.28;;;20.60;99.90;;;;;;7376726;19;20333;-73
2022/07/14 02:45:20;;;;;;;6.38;2.85;;;20.50;99.90;;;;;;7377926;19;20341;-73
2022/07/14 02:47:46;;;;;;;3.13;2.70;;;20.60;99.90;;;;;;7377117;19;20349;-73
2022/07/14 02:50:12;;;;;;;3.83;2.73;;;20.60;99.90;;;;;;7374208;19;20854;-74
2022/07/14 02:52:40;;;;;;;2.53;2.33;;;20.60;99.90;;;;;;7375805;19;20404;-73
2022/07/14 02:55:06;;;;;;;2.78;2.28;;;20.60;99.90;;;;;;7375312;19;21042;-74
2022/07/14 02:57:33;;;;;;;4.40;2.17;;;20.60;99.90;;;;;;7375556;19;20353;-74
2022/07/14 02:59:58;;;;;;;2.13;2.03;;;20.60;99.90;;;;;;7374178;19;20369;-74
2022/07/14 03:02:25;;;;;;;1.88;1.77;;;20.60;99.90;;;;;;7376360;19;20317;-73
2022/07/14 03:04:51;;;;;;;1.80;1.70;;;20.60;99.90;;;;;;7371889;19;20357;-75
2022/07/14 03:07:17;;;;;;;1.80;1.70;;;20.70;99.90;;;;;;7373479;19;20317;-74
2022/07/14 03:09:42;;;;;;;2.25;2.08;;;20.70;99.90;;;;;;7371390;19;20305;-74
2022/07/14 03:12:08;;;;;;;1.93;1.80;;;20.70;99.90;;;;;;7377209;19;20703;-74
2022/07/14 03:14:37;;;;;;;2.00;1.90;;;20.60;99.90;;;;;;7374185;19;20407;-74
2022/07/14 03:17:04;;;;;;;2.13;2.00;;;20.60;99.90;;;;;;7372489;19;20663;-74
2022/07/14 03:19:29;;;;;;;2.30;2.10;;;20.50;99.90;;;;;;7373454;19;20926;-77
2022/07/14 03:21:56;;;;;;;2.60;2.20;;;20.50;99.90;;;;;;7375268;19;20352;-77
2022/07/14 03:24:21;;;;;;;2.70;2.00;;;20.50;99.90;;;;;;7375403;19;20339;-76
2022/07/14 03:26:48;;;;;;;2.40;2.20;;;20.40;99.90;;;;;;7376660;19;20348;-76
2022/07/14 03:29:14;;;;;;;2.17;1.98;;;20.40;99.90;;;;;;7372042;19;20338;-77
2022/07/14 03:31:40;;;;;;;2.53;1.83;;;20.40;99.90;;;;;;7374217;19;20361;-75
2022/07/14 03:34:12;;;;;;;2.15;1.75;;;20.50;99.90;;;;;;7377200;19;20481;-76
2022/07/14 03:36:38;;;;;;;3.40;1.93;;;20.50;99.90;;;;;;7377724;19;20365;-76
2022/07/14 03:39:05;;;;;;;2.40;2.15;;;20.50;99.90;;;;;;7350053;19;20397;-76
2022/07/14 03:41:31;;;;;;;2.17;1.92;;;20.50;99.90;;;;;;7372872;19;20355;-75
2022/07/14 03:43:57;;;;;;;2.10;2.00;;;20.50;99.90;;;;;;7375572;19;20341;-76
2022/07/14 03:46:23;;;;;;;2.22;2.00;;;20.40;99.90;;;;;;7375429;19;21139;-76
2022/07/14 03:49:00;;;;;;;4.50;4.03;;;20.40;99.90;;;;;;7369699;19;21001;-76
2022/07/14 03:51:29;;;;;;;2.75;2.40;;;20.40;99.90;;;;;;7370508;19;21296;-76
2022/07/14 03:53:55;;;;;;;3.65;1.98;;;20.30;99.90;;;;;;7377477;19;20481;-75
2022/07/14 03:56:21;;;;;;;1.83;1.73;;;20.40;99.90;;;;;;7375284;19;20344;-76
2022/07/14 03:58:47;;;;;;;2.20;2.00;;;20.40;99.90;;;;;;7372422;19;20369;-76
2022/07/14 04:01:16;;;;;;;1.90;1.70;;;20.40;99.90;;;;;;7374478;19;20328;-75
2022/07/14 04:03:44;;;;;;;2.00;1.80;;;20.30;99.90;;;;;;7375489;19;20954;-75
2022/07/14 04:06:12;;;;;;;1.90;1.70;;;20.30;99.90;;;;;;7374591;19;20325;-76
2022/07/14 04:08:38;;;;;;;2.20;1.60;;;20.20;99.90;;;;;;7371024;19;20399;-77
2022/07/14 04:11:04;;;;;;;1.90;1.80;;;20.20;99.90;;;;;;7375098;19;20362;-76
2022/07/14 04:13:32;;;;;;;1.70;1.60;;;20.10;99.90;;;;;;7375739;19;20328;-75
2022/07/14 04:15:58;;;;;;;1.77;1.67;;;20.10;99.90;;;;;;7372941;19;20378;-76
2022/07/14 04:18:24;;;;;;;1.95;1.83;;;20.10;99.90;;;;;;7370147;19;20328;-76
2022/07/14 04:20:51;;;;;;;2.67;2.10;;;20.10;99.90;;;;;;7374480;19;20369;-76
2022/07/14 04:23:19;;;;;;;2.38;2.10;;;20.10;99.90;;;;;;7374789;19;20327;-76
2022/07/14 04:25:45;;;;;;;1.73;1.63;;;20.10;99.90;;;;;;7374668;19;20768;-76
2022/07/14 04:28:11;;;;;;;2.20;2.00;;;20.10;99.90;;;;;;7370289;19;20823;-75
2022/07/14 04:30:37;;;;;;;1.98;1.80;;;20.10;99.90;;;;;;7371867;19;20358;-76
2022/07/14 04:33:03;;;;;;;2.00;1.85;;;20.20;99.90;;;;;;7374031;19;20752;-76
2022/07/14 04:35:29;;;;;;;1.83;1.73;;;20.20;99.90;;;;;;7340067;19;20350;-77
2022/07/14 04:37:58;;;;;;;2.00;1.90;;;20.20;99.90;;;;;;7369497;19;20356;-81
2022/07/14 04:40:29;;;;;;;1.80;1.70;;;20.20;99.90;;;;;;7375160;19;20340;-79
2022/07/14 04:42:55;;;;;;;1.92;1.80;;;20.20;99.90;;;;;;7374864;19;20855;-77
2022/07/14 04:45:22;;;;;;;1.73;1.63;;;20.20;99.90;;;;;;7372965;19;20348;-77
2022/07/14 04:47:50;;;;;;;1.95;1.75;;;20.20;99.90;;;;;;7370224;19;20370;-77
2022/07/14 04:53:00;;;;;;;1.83;1.60;;;20.10;99.90;;;;;;7270752;19;2004823;-77
2022/07/14 04:55:44;;;;;;;1.63;1.52;;;20.20;99.90;;;;;;7376182;19;20378;-77
2022/07/14 04:58:30;;;;;;;2.33;1.50;;;20.20;99.90;;;;;;7269406;19;2004738;-77
2022/07/14 05:00:59;;;;;;;1.60;1.40;;;20.20;99.90;;;;;;7369730;19;20349;-77
2022/07/14 05:03:27;;;;;;;2.07;1.57;;;20.20;99.90;;;;;;7375704;19;20331;-77
2022/07/14 05:05:53;;;;;;;2.28;1.40;;;20.20;99.90;;;;;;7377835;19;21352;-78
2022/07/14 05:08:19;;;;;;;1.67;1.40;;;20.30;99.90;;;;;;7379975;19;20356;-77
2022/07/14 05:10:47;;;;;;;1.60;1.50;;;20.30;99.90;;;;;;7376732;19;20365;-78
2022/07/14 05:13:13;;;;;;;1.77;1.40;;;20.30;99.90;;;;;;7380615;19;20320;-77
2022/07/14 05:15:39;;;;;;;2.30;1.63;;;20.40;99.90;;;;;;7379946;19;20343;-76
2022/07/14 05:18:04;;;;;;;1.80;1.70;;;20.50;99.90;;;;;;7372654;19;20348;-77
2022/07/14 05:20:30;;;;;;;1.60;1.50;;;20.50;99.90;;;;;;7375802;19;20333;-79
2022/07/14 05:22:56;;;;;;;1.60;1.50;;;20.50;99.90;;;;;;7377734;19;20910;-77
2022/07/14 05:25:22;;;;;;;3.03;1.60;;;20.70;99.90;;;;;;7377590;19;20353;-77
2022/07/14 05:27:47;;;;;;;1.80;1.70;;;20.70;99.90;;;;;;7376542;19;20329;-78
2022/07/14 05:30:25;;;;;;;1.60;1.50;;;20.70;99.90;;;;;;7272303;19;2004362;-78
2022/07/14 05:32:53;;;;;;;1.50;1.40;;;20.80;99.90;;;;;;7379750;19;20385;-77
2022/07/14 05:35:19;;;;;;;1.80;1.70;;;20.90;99.90;;;;;;7382042;19;20325;-77
2022/07/14 05:37:46;;;;;;;3.53;1.70;;;20.90;99.90;;;;;;7376427;19;20377;-78
2022/07/14 05:40:12;;;;;;;2.00;1.80;;;20.90;99.90;;;;;;7379987;19;20431;-79
2022/07/14 05:42:37;;;;;;;1.70;1.60;;;20.80;99.90;;;;;;7379867;19;20371;-78
2022/07/14 05:45:04;;;;;;;1.52;1.42;;;21.00;99.90;;;;;;7377046;19;20351;-77
2022/07/14 05:47:30;;;;;;;1.60;1.50;;;21.10;99.90;;;;;;7376153;19;20352;-76
2022/07/14 05:49:55;;;;;;;1.58;1.48;;;21.40;99.90;;;;;;7380272;19;20341;-78
2022/07/14 05:52:21;;;;;;;1.50;1.33;;;21.70;99.90;;;;;;7378638;19;20328;-79
2022/07/14 05:54:48;;;;;;;1.85;1.75;;;21.90;99.90;;;;;;7378980;19;20743;-78
2022/07/14 05:57:15;;;;;;;2.63;1.80;;;22.00;99.90;;;;;;7374720;19;21737;-77
2022/07/14 05:59:42;;;;;;;1.83;1.67;;;21.90;99.90;;;;;;7378443;19;20320;-79
2022/07/14 06:02:07;;;;;;;2.90;1.70;;;22.00;99.90;;;;;;7377860;19;20886;-76
2022/07/14 06:04:33;;;;;;;1.63;1.53;;;22.00;99.90;;;;;;7378509;19;20462;-76
2022/07/14 06:07:00;;;;;;;2.53;1.65;;;22.20;99.90;;;;;;7373506;19;20359;-78
2022/07/14 06:09:26;;;;;;;1.40;1.30;;;22.20;99.90;;;;;;7375267;19;20320;-77
2022/07/14 06:11:51;;;;;;;2.00;1.60;;;22.30;99.90;;;;;;7370279;19;20371;-78
2022/07/14 06:14:18;;;;;;;3.45;1.77;;;22.50;99.90;;;;;;7379817;19;20307;-78
2022/07/14 06:16:47;;;;;;;2.22;1.50;;;22.40;99.90;;;;;;7380719;19;20673;-78
2022/07/14 06:19:13;;;;;;;1.70;1.33;;;22.60;99.90;;;;;;7377080;19;20344;-78
2022/07/14 06:21:40;;;;;;;2.30;1.63;;;22.80;99.90;;;;;;7373816;19;20355;-78
2022/07/14 06:24:06;;;;;;;3.67;1.80;;;23.10;99.90;;;;;;7372439;19;20349;-77
2022/07/14 06:26:31;;;;;;;2.20;1.40;;;23.00;99.90;;;;;;7377283;19;20352;-77
2022/07/14 06:28:57;;;;;;;3.27;1.80;;;23.00;99.90;;;;;;7375597;19;20742;-77
2022/07/14 06:31:23;;;;;;;1.70;1.60;;;23.00;99.90;;;;;;7376766;19;20332;-77
2022/07/14 06:33:49;;;;;;;1.95;1.70;;;22.90;99.90;;;;;;7376572;19;20359;-78
2022/07/14 06:36:33;;;;;;;2.03;1.40;;;22.90;99.90;;;;;;7277372;19;2004594;-79
2022/07/14 06:38:59;;;;;;;2.72;1.70;;;23.10;99.90;;;;;;7371490;19;20337;-81
2022/07/14 06:41:26;;;;;;;3.90;1.90;;;23.00;99.90;;;;;;7374681;19;20364;-78
2022/07/14 06:43:51;;;;;;;1.95;1.40;;;23.10;99.90;;;;;;7378395;19;20344;-77
2022/07/14 06:46:17;;;;;;;3.97;2.00;;;23.20;99.90;;;;;;7371630;19;20350;-76
2022/07/14 06:48:43;;;;;;;1.83;1.73;;;23.30;99.90;;;;;;7378168;19;21181;-78
2022/07/14 06:51:08;;;;;;;2.30;2.00;;;23.20;99.90;;;;;;7379846;19;20356;-78
2022/07/14 06:53:35;;;;;;;2.50;1.90;;;23.00;99.90;;;;;;7380468;19;20344;-78
2022/07/14 06:56:00;;;;;;;3.23;2.00;;;22.90;99.90;;;;;;7378746;19;20373;-77
2022/07/14 06:58:26;;;;;;;2.23;1.70;;;22.70;99.90;;;;;;7376707;19;20432;-79
2022/07/14 07:00:52;;;;;;;2.75;1.70;;;23.20;99.90;;;;;;7377271;19;20356;-78
2022/07/14 07:03:17;;;;;;;2.27;2.07;;;23.50;99.90;;;;;;7376313;19;20336;-78
2022/07/14 07:08:28;;;;;;;2.95;2.08;;;23.20;99.90;;;;;;7273117;19;2004332;-77
2022/07/14 07:10:57;;;;;;;2.20;2.00;;;23.30;99.90;;;;;;7381148;19;20357;-77
2022/07/14 07:13:23;;;;;;;3.13;2.10;;;23.40;99.90;;;;;;7379677;19;20319;-77
2022/07/14 07:15:49;;;;;;;2.22;2.03;;;23.40;99.90;;;;;;7378358;19;20321;-77
2022/07/14 07:18:14;;;;;;;2.38;2.17;;;23.40;99.90;;;;;;7374870;19;20304;-77
2022/07/14 07:20:40;;;;;;;2.53;2.07;;;23.20;99.90;;;;;;7381072;19;20380;-78
2022/07/14 07:23:05;;;;;;;2.47;2.27;;;23.20;99.90;;;;;;7380622;19;20887;-78
2022/07/14 07:25:31;;;;;;;4.40;2.20;;;23.30;99.90;;;;;;7378416;19;20379;-77
2022/07/14 07:27:58;;;;;;;5.30;2.22;;;23.30;99.90;;;;;;7374863;19;20344;-78
2022/07/14 07:30:24;;;;;;;2.90;2.20;;;23.20;99.90;;;;;;7378617;19;20412;-77
2022/07/14 07:32:50;;;;;;;3.60;2.30;;;23.20;99.90;;;;;;7381095;19;20377;-78
2022/07/14 07:35:16;;;;;;;3.20;2.00;;;23.20;99.90;;;;;;7379318;19;20308;-79
2022/07/14 07:37:41;;;;;;;3.37;2.57;;;23.30;99.90;;;;;;7375912;19;20361;-78
2022/07/14 07:40:07;;;;;;;2.30;2.10;;;23.50;99.90;;;;;;7378294;19;20399;-78
2022/07/14 07:42:33;;;;;;;5.43;2.47;;;23.70;99.90;;;;;;7380374;19;20367;-78
2022/07/14 07:45:00;;;;;;;3.90;2.55;;;23.70;99.90;;;;;;7378649;19;21466;-78
2022/07/14 07:47:26;;;;;;;2.60;2.07;;;23.90;99.90;;;;;;7374252;19;20360;-77
2022/07/14 07:49:52;;;;;;;4.60;2.47;;;24.20;99.90;;;;;;7380510;19;20456;-77
2022/07/14 07:52:18;;;;;;;3.35;2.47;;;23.90;99.90;;;;;;7380224;19;20320;-77
2022/07/14 07:54:44;;;;;;;2.75;2.30;;;23.90;99.90;;;;;;7378795;19;20472;-78
2022/07/14 07:57:11;;;;;;;3.22;2.50;;;23.90;99.90;;;;;;7376632;19;20325;-76
2022/07/14 07:59:37;;;;;;;3.28;2.40;;;24.10;99.90;;;;;;7377914;19;20317;-76
2022/07/14 08:02:02;;;;;;;5.70;2.25;;;24.00;99.90;;;;;;7375155;19;20332;-76
2022/07/14 08:04:28;;;;;;;2.60;1.90;;;24.20;99.90;;;;;;7378047;19;20336;-77
2022/07/14 08:06:53;;;;;;;2.00;1.80;;;24.30;99.90;;;;;;7377713;19;20666;-76
2022/07/14 08:09:19;;;;;;;2.25;1.60;;;24.30;99.90;;;;;;7375666;19;20331;-77
2022/07/14 08:11:45;;;;;;;2.03;1.65;;;24.40;99.90;;;;;;7378507;19;20316;-77
2022/07/14 08:16:57;;;;;;;2.15;1.88;;;24.50;99.90;;;;;;7274531;19;2004431;-77
2022/07/14 08:19:23;;;;;;;1.73;1.63;;;24.20;99.90;;;;;;7373849;19;20421;-76
2022/07/14 08:21:49;;;;;;;4.40;1.30;;;24.00;99.90;;;;;;7377184;19;20786;-77
2022/07/14 08:24:14;;;;;;;3.03;1.50;;;23.80;99.90;;;;;;7378588;19;20337;-76
2022/07/14 08:26:40;;;;;;;1.40;1.30;;;23.70;99.90;;;;;;7375448;19;20501;-76
2022/07/14 08:29:06;;;;;;;3.13;1.60;;;23.60;99.90;;;;;;7373748;19;20352;-77
2022/07/14 08:31:32;;;;;;;1.50;1.40;;;23.50;99.90;;;;;;7375195;19;20341;-77
2022/07/14 08:33:57;;;;;;;1.63;1.50;;;23.70;99.90;;;;;;7378105;19;20363;-76
2022/07/14 08:36:23;;;;;;;1.50;1.30;;;24.00;99.90;;;;;;7374520;19;20320;-76
2022/07/14 08:38:48;;;;;;;1.58;1.40;;;24.10;99.90;;;;;;7374107;19;20867;-76
2022/07/14 08:41:14;;;;;;;3.63;1.43;;;24.10;99.90;;;;;;7380875;19;20326;-76
2022/07/14 08:43:40;;;;;;;2.53;1.60;;;24.10;99.90;;;;;;7379095;19;20866;-76
2022/07/14 08:46:06;;;;;;;1.90;1.30;;;24.40;99.90;;;;;;7379034;19;20343;-76
2022/07/14 08:48:32;;;;;;;1.27;1.17;;;24.50;99.90;;;;;;7373693;19;20349;-77
2022/07/14 08:50:57;;;;;;;2.70;1.40;;;25.10;99.90;;;;;;7381827;19;20745;-77
2022/07/14 08:53:23;;;;;;;3.83;1.55;;;25.00;99.90;;;;;;7382575;19;20412;-77
2022/07/14 08:55:48;;;;;;;3.00;1.43;;;25.10;99.90;;;;;;7382245;19;20396;-76
2022/07/14 08:58:14;;;;;;;1.40;1.30;;;25.10;99.90;;;;;;7378939;19;20760;-76
2022/07/14 09:00:40;;;;;;;1.57;1.40;;;25.10;99.90;;;;;;7382028;19;20341;-77
2022/07/14 09:03:05;;;;;;;1.55;1.33;;;25.10;99.90;;;;;;7379540;19;20431;-77
2022/07/14 09:05:31;;;;;;;1.30;1.20;;;25.30;99.90;;;;;;7383253;19;20340;-76
2022/07/14 09:07:57;;;;;;;1.30;1.20;;;25.50;99.90;;;;;;7378267;19;21074;-77
2022/07/14 09:10:24;;;;;;;1.50;1.30;;;25.70;99.90;;;;;;7382033;19;20312;-76
2022/07/14 09:12:50;;;;;;;2.42;1.25;;;25.80;99.90;;;;;;7382254;19;20323;-76
2022/07/14 09:18:01;;;;;;;1.23;1.13;;;26.10;99.90;;;;;;7276757;19;2004605;-76
2022/07/14 09:20:28;;;;;;;3.00;1.60;;;26.30;99.90;;;;;;7384765;19;20339;-76
2022/07/14 09:22:55;;;;;;;2.88;1.63;;;25.50;99.90;;;;;;7381572;19;20472;-78
2022/07/14 09:25:21;;;;;;;3.63;1.42;;;25.60;99.90;;;;;;7380094;19;20324;-76
2022/07/14 09:27:47;;;;;;;6.17;1.47;;;25.30;99.90;;;;;;7378426;19;20908;-76
2022/07/14 09:30:13;;;;;;;1.83;1.40;;;25.50;99.90;;;;;;7379395;19;20357;-77
2022/07/14 09:32:58;;;;;;;2.40;1.30;;;26.00;99.90;;;;;;7383643;19;20333;-76
2022/07/14 09:35:34;;;;;;;1.50;1.40;;;26.10;99.90;;;;;;7384360;19;21322;-76
2022/07/14 09:38:00;;;;;;;1.20;1.10;;;26.40;99.90;;;;;;7276333;19;2004516;-76
2022/07/14 09:40:30;;;;;;;1.48;1.20;;;26.60;99.90;;;;;;7382764;19;20881;-76
2022/07/14 09:43:00;;;;;;;2.05;1.25;;;27.00;99.90;;;;;;7380819;19;20340;-77
2022/07/14 09:45:33;;;;;;;1.98;1.30;;;27.10;99.30;;;;;;7381452;19;20423;-76
2022/07/14 09:48:16;;;;;;;2.88;1.30;;;27.30;98.70;;;;;;7379586;19;20332;-77
2022/07/14 09:50:48;;;;;;;1.40;1.30;;;27.40;98.50;;;;;;7381245;19;20343;-77
2022/07/14 09:53:31;;;;;;;1.05;1.05;;;27.40;98.50;;;;;;7383362;19;20441;-77
2022/07/14 09:56:07;;;;;;;1.30;1.20;;;27.50;99.00;;;;;;7279487;19;2004417;-77
2022/07/14 09:58:35;;;;;;;1.52;1.40;;;27.80;97.80;;;;;;7378943;19;20349;-78
2022/07/14 10:01:06;;;;;;;2.80;1.67;;;28.20;96.60;;;;;;7380968;19;20955;-77
2022/07/14 10:03:33;;;;;;;1.70;1.40;;;27.70;97.60;;;;;;7383865;19;20345;-77
2022/07/14 10:06:00;;;;;;;1.80;1.40;;;28.00;95.10;;;;;;7380727;19;20347;-77
2022/07/14 10:08:29;;;;;;;2.53;1.25;;;27.60;93.80;;;;;;7377567;19;20316;-77
2022/07/14 10:10:56;;;;;;;2.78;1.15;;;27.60;94.80;;;;;;7383385;19;20898;-76
2022/07/14 10:13:22;;;;;;;1.90;1.25;;;28.10;95.70;;;;;;7384580;19;20296;-77
2022/07/14 10:15:51;;;;;;;1.33;1.23;;;28.70;94.20;;;;;;7383359;19;20416;-77
2022/07/14 10:18:17;;;;;;;1.30;1.20;;;28.50;92.00;;;;;;7376882;19;20316;-77
2022/07/14 10:20:48;;;;;;;2.00;1.30;;;28.10;92.00;;;;;;7382614;19;20883;-77
2022/07/14 10:23:13;;;;;;;1.83;1.23;;;28.00;92.30;;;;;;7382807;19;20328;-77
2022/07/14 10:25:40;;;;;;;4.82;1.55;;;28.10;91.90;;;;;;7382148;19;20349;-77
2022/07/14 10:28:06;;;;;;;1.95;1.40;;;28.00;90.90;;;;;;7377395;19;20347;-77
2022/07/14 10:30:41;;;;;;;1.43;1.30;;;27.80;91.10;;;;;;7381134;19;20304;-78
2022/07/14 10:33:17;;;;;;;1.48;1.38;;;27.90;92.00;;;;;;7381403;19;20365;-77
2022/07/14 10:36:03;;;;;;;2.72;1.40;;;28.30;92.20;;;;;;7380715;19;20332;-77
2022/07/14 10:38:49;;;;;;;1.10;1.00;;;28.30;90.30;;;;;;7276750;19;2004361;-77
2022/07/14 10:41:38;;;;;;;2.70;1.20;;;28.30;87.80;;;;;;7380861;19;20391;-79
2022/07/14 10:44:23;;;;;;;1.27;1.17;;;28.40;90.20;;;;;;7279531;19;2004642;-77
2022/07/14 10:46:51;;;;;;;1.95;1.30;;;28.80;89.70;;;;;;7379822;19;20401;-77
2022/07/14 10:49:17;;;;;;;2.23;1.10;;;29.10;86.80;;;;;;7380751;19;20958;-77
2022/07/14 10:51:49;;;;;;;1.65;1.20;;;29.10;84.10;;;;;;7381208;19;20331;-77
2022/07/14 10:54:22;;;;;;;1.30;1.20;;;28.90;83.70;;;;;;7380638;19;20408;-77
2022/07/14 10:56:48;;;;;;;1.42;1.33;;;29.30;85.80;;;;;;7383175;19;20352;-80
2022/07/14 10:59:25;;;;;;;2.83;1.40;;;29.10;80.20;;;;;;7375560;19;20336;-78
2022/07/14 11:02:12;;;;;;;1.35;1.20;;;27.60;76.40;;;;;;7378374;19;20321;-78
2022/07/14 11:04:59;;;;;;;1.10;1.00;;;28.70;80.60;;;;;;7279885;19;2004559;-77
2022/07/14 11:07:52;;;;;;;2.17;1.25;;;29.30;84.70;;;;;;7379112;19;21268;-78
2022/07/14 11:10:21;;;;;;;2.67;1.10;;;30.00;80.50;;;;;;7279802;19;2004241;-78
2022/07/14 11:13:07;;;;;;;0.95;0.90;;;29.80;80.90;;;;;;7381780;19;20316;-77
2022/07/14 11:15:38;;;;;;;11.30;1.83;;;29.40;79.60;;;;;;7276712;19;2004721;-78
2022/07/14 11:18:18;;;;;;;1.38;1.27;;;29.90;78.70;;;;;;7378019;19;20341;-80
2022/07/14 11:20:59;;;;;;;3.78;1.30;;;30.20;74.70;;;;;;7381323;19;20415;-78
2022/07/14 11:23:33;;;;;;;3.50;1.40;;;30.10;74.10;;;;;;7379947;19;20422;-78
2022/07/14 11:26:02;;;;;;;1.67;1.27;;;29.90;77.60;;;;;;7279372;19;2004503;-79
2022/07/14 11:28:50;;;;;;;1.65;1.17;;;29.80;75.10;;;;;;7375289;19;21188;-79
2022/07/14 11:31:17;;;;;;;1.30;1.20;;;30.30;76.90;;;;;;7379536;19;20328;-78
2022/07/14 11:36:37;;;;;;;1.20;1.10;;;29.00;72.80;;;;;;7276783;19;2004513;-77
2022/07/14 11:39:15;;;;;;;2.27;1.40;;;29.30;75.30;;;;;;7374491;19;20367;-78
2022/07/14 11:42:02;;;;;;;1.50;1.10;;;29.70;73.60;;;;;;7379695;19;20339;-80
2022/07/14 11:44:35;;;;;;;2.00;1.25;;;30.40;75.00;;;;;;7278897;19;2004455;-78
2022/07/14 11:47:02;;;;;;;2.17;1.30;;;30.70;75.80;;;;;;7379806;19;20462;-79
2022/07/14 11:49:27;;;;;;;2.17;1.30;;;29.60;69.30;;;;;;7377482;19;20320;-78
2022/07/14 11:51:59;;;;;;;2.25;1.33;;;29.90;72.50;;;;;;7374353;19;20998;-77
2022/07/14 11:54:25;;;;;;;1.95;1.35;;;30.10;72.80;;;;;;7378258;19;20326;-78
2022/07/14 11:57:01;;;;;;;2.92;1.52;;;30.60;69.00;;;;;;7380439;19;20309;-80
2022/07/14 11:59:27;;;;;;;2.22;1.38;;;30.40;67.20;;;;;;7273028;19;2004652;-78
2022/07/14 12:01:52;;;;;;;2.00;1.20;;;31.10;68.50;;;;;;7377433;19;20427;-78
2022/07/14 12:04:18;;;;;;;1.33;1.20;;;30.40;69.80;;;;;;7381806;19;20863;-79
2022/07/14 12:06:45;;;;;;;5.17;1.60;;;30.60;70.10;;;;;;7379472;19;20324;-79
2022/07/14 12:09:11;;;;;;;2.60;1.17;;;30.60;70.50;;;;;;7374407;19;20700;-77
2022/07/14 12:11:37;;;;;;;2.70;1.23;;;30.80;69.20;;;;;;7378616;19;20326;-79
2022/07/14 12:14:03;;;;;;;1.30;1.20;;;31.40;68.80;;;;;;7378345;19;20324;-79
2022/07/14 12:16:29;;;;;;;3.10;1.30;;;30.90;65.50;;;;;;7380265;19;20408;-78
2022/07/14 12:18:55;;;;;;;2.08;1.13;;;31.20;65.70;;;;;;7374525;19;20357;-79
2022/07/14 12:21:34;;;;;;;1.23;1.13;;;30.80;63.90;;;;;;7379264;19;20351;-77
2022/07/14 12:23:59;;;;;;;2.78;1.10;;;31.10;65.00;;;;;;7278491;19;2004373;-80
2022/07/14 12:26:25;;;;;;;1.87;1.07;;;31.50;66.70;;;;;;7380350;19;20412;-81
2022/07/14 12:28:56;;;;;;;2.03;1.30;;;31.90;65.80;;;;;;7377054;19;20367;-78
2022/07/14 12:31:22;;;;;;;2.30;1.40;;;31.80;64.40;;;;;;7378043;19;20352;-80
2022/07/14 12:33:48;;;;;;;2.33;1.20;;;31.30;62.80;;;;;;7379394;19;20328;-80
2022/07/14 12:36:16;;;;;;;1.80;1.30;;;31.70;64.50;;;;;;7376647;19;20336;-79
2022/07/14 12:38:41;;;;;;;1.50;1.40;;;31.90;63.20;;;;;;7374575;19;20768;-80
2022/07/14 12:41:07;;;;;;;4.73;1.27;;;29.50;58.00;;;;;;7379515;19;20360;-79
2022/07/14 12:43:34;;;;;;;34.07;4.13;;;30.30;65.50;;;;;;7380113;19;20333;-80
2022/07/14 12:46:17;;;;;;;1.98;1.30;;;30.80;63.20;;;;;;7377145;19;20333;-79
2022/07/14 12:48:48;;;;;;;1.80;1.33;;;31.20;65.20;;;;;;7373455;19;20328;-79
2022/07/14 12:51:50;;;;;;;1.77;1.25;;;31.70;61.90;;;;;;7377716;19;20893;-81
2022/07/14 12:54:17;;;;;;;1.33;1.13;;;29.80;60.30;;;;;;7275909;19;2004341;-81
2022/07/14 12:56:52;;;;;;;2.60;1.30;;;30.30;66.30;;;;;;7375080;19;20363;-80
2022/07/14 12:59:22;;;;;;;4.93;1.20;;;29.70;60.70;;;;;;7373976;19;20332;-80
2022/07/14 13:01:59;;;;;;;3.23;1.20;;;30.30;62.50;;;;;;7374541;19;20305;-79
2022/07/14 13:04:39;;;;;;;3.20;1.40;;;31.20;65.20;;;;;;7377103;19;20934;-79
2022/07/14 13:07:19;;;;;;;3.90;1.17;;;30.80;59.30;;;;;;7272400;19;2004595;-78
2022/07/14 13:10:07;;;;;;;1.13;1.00;;;30.80;63.90;;;;;;7378012;19;20328;-79